sensor_id;sensor_type;location;lat;lon;timestamp;pressure;altitude;pressure_sealevel;temperature;humidity
53089;BME280;38968;47.696;17.540;2023-01-25T00:02:38;10197900.0;;;4.63;67.54004
53089;BME280;38968;47.696;17.540;2023-01-25T00:07:38;10197480.0;;;4.89;67.17578
53089;BME280;38968;47.696;17.540;2023-01-25T00:12:38;10197740.0;;;4.89;67.00586
53089;BME280;38968;47.696;17.540;2023-01-25T00:17:38;10197710.0;;;5.02;66.74414
53089;BME280;38968;47.696;17.540;2023-01-25T00:22:38;10196560.0;;;4.97;66.79297
53089;BME280;38968;47.696;17.540;2023-01-25T00:27:38;10196540.0;;;4.91;66.68164
53089;BME280;38968;47.696;17.540;2023-01-25T00:32:51;10196220.0;;;4.75;67.13184
53089;BME280;38968;47.696;17.540;2023-01-25T00:37:41;10197200.0;;;4.84;66.9541
53089;BME280;38968;47.696;17.540;2023-01-25T00:42:38;10196730.0;;;4.96;66.64551
53089;BME280;38968;47.696;17.540;2023-01-25T00:47:38;10196800.0;;;4.91;66.59082
53089;BME280;38968;47.696;17.540;2023-01-25T00:52:39;10197090.0;;;4.98;66.37793
53089;BME280;38968;47.696;17.540;2023-01-25T00:57:38;10197420.0;;;4.96;66.10254
53089;BME280;38968;47.696;17.540;2023-01-25T01:02:38;10197590.0;;;4.94;65.99805
53089;BME280;38968;47.696;17.540;2023-01-25T01:07:38;10197400.0;;;4.9;66.10449
53089;BME280;38968;47.696;17.540;2023-01-25T01:12:38;10197480.0;;;4.89;65.93359
53089;BME280;38968;47.696;17.540;2023-01-25T01:17:38;10197910.0;;;4.87;66.05371
53089;BME280;38968;47.696;17.540;2023-01-25T01:22:38;10197560.0;;;4.86;66.03125
53089;BME280;38968;47.696;17.540;2023-01-25T01:27:38;10198590.0;;;4.85;65.93848
53089;BME280;38968;47.696;17.540;2023-01-25T01:32:38;10198050.0;;;4.78;66.12109
53089;BME280;38968;47.696;17.540;2023-01-25T01:37:41;10198530.0;;;4.92;65.72363
53089;BME280;38968;47.696;17.540;2023-01-25T01:47:40;10198550.0;;;4.98;64.7959
53089;BME280;38968;47.696;17.540;2023-01-25T01:52:38;10197780.0;;;4.98;64.70508
53089;BME280;38968;47.696;17.540;2023-01-25T01:57:49;10197460.0;;;4.84;64.33496
53089;BME280;38968;47.696;17.540;2023-01-25T02:02:39;10196880.0;;;4.88;64.82715
53089;BME280;38968;47.696;17.540;2023-01-25T02:07:38;10197560.0;;;4.65;64.4873
53089;BME280;38968;47.696;17.540;2023-01-25T02:12:38;10197270.0;;;4.8;65.24316
53089;BME280;38968;47.696;17.540;2023-01-25T02:17:39;10196520.0;;;4.85;65.25
53089;BME280;38968;47.696;17.540;2023-01-25T02:27:47;10196420.0;;;4.82;64.9541
53089;BME280;38968;47.696;17.540;2023-01-25T02:32:38;10195570.0;;;4.85;65.13867
53089;BME280;38968;47.696;17.540;2023-01-25T02:37:38;10195360.0;;;4.75;65.25781
53089;BME280;38968;47.696;17.540;2023-01-25T02:42:40;10194250.0;;;4.79;65.15137
53089;BME280;38968;47.696;17.540;2023-01-25T02:47:38;10193090.0;;;4.71;65.08301
53089;BME280;38968;47.696;17.540;2023-01-25T02:52:38;10193100.0;;;4.72;65.16309
53089;BME280;38968;47.696;17.540;2023-01-25T02:57:38;10193420.0;;;4.67;65.25684
53089;BME280;38968;47.696;17.540;2023-01-25T03:02:38;10192490.0;;;4.49;65.86328
53089;BME280;38968;47.696;17.540;2023-01-25T03:07:38;10191820.0;;;4.54;66.07324
53089;BME280;38968;47.696;17.540;2023-01-25T03:12:38;10191850.0;;;4.62;66.04004
53089;BME280;38968;47.696;17.540;2023-01-25T03:17:38;10192020.0;;;4.6;66.18359
53089;BME280;38968;47.696;17.540;2023-01-25T03:22:38;10191800.0;;;4.48;66.61621
53089;BME280;38968;47.696;17.540;2023-01-25T03:27:38;10191890.0;;;4.5;66.74414
53089;BME280;38968;47.696;17.540;2023-01-25T03:32:38;10191900.0;;;4.31;66.83789
53089;BME280;38968;47.696;17.540;2023-01-25T03:37:38;10191850.0;;;4.41;67.32617
53089;BME280;38968;47.696;17.540;2023-01-25T03:42:38;10191100.0;;;4.46;66.91602
53089;BME280;38968;47.696;17.540;2023-01-25T03:47:38;10192590.0;;;4.53;66.92871
53089;BME280;38968;47.696;17.540;2023-01-25T03:52:38;10191700.0;;;4.46;66.94043
53089;BME280;38968;47.696;17.540;2023-01-25T03:57:38;10191660.0;;;4.57;66.80859
53089;BME280;38968;47.696;17.540;2023-01-25T04:02:38;10190420.0;;;4.28;66.87891
53089;BME280;38968;47.696;17.540;2023-01-25T04:07:38;10190440.0;;;4.12;67.56348
53089;BME280;38968;47.696;17.540;2023-01-25T04:12:38;10189840.0;;;4.13;67.09082
53089;BME280;38968;47.696;17.540;2023-01-25T04:17:38;10191120.0;;;3.88;68.49219
53089;BME280;38968;47.696;17.540;2023-01-25T04:22:38;10191070.0;;;3.96;68.69824
53089;BME280;38968;47.696;17.540;2023-01-25T04:27:38;10190080.0;;;4.07;68.77148
53089;BME280;38968;47.696;17.540;2023-01-25T04:32:38;10190300.0;;;4.19;68.27148
53089;BME280;38968;47.696;17.540;2023-01-25T04:37:38;10189880.0;;;4.01;68.27832
53089;BME280;38968;47.696;17.540;2023-01-25T04:42:38;10191190.0;;;4.05;68.51953
53089;BME280;38968;47.696;17.540;2023-01-25T04:47:38;10190360.0;;;4.13;67.99121
53089;BME280;38968;47.696;17.540;2023-01-25T04:52:38;10189720.0;;;4.24;67.70605
53089;BME280;38968;47.696;17.540;2023-01-25T04:57:38;10189090.0;;;4.42;67.32813
53089;BME280;38968;47.696;17.540;2023-01-25T05:02:38;10189470.0;;;4.48;67.16797
53089;BME280;38968;47.696;17.540;2023-01-25T05:07:38;10190070.0;;;4.47;66.41113
53089;BME280;38968;47.696;17.540;2023-01-25T05:12:38;10189460.0;;;4.45;66.22852
53089;BME280;38968;47.696;17.540;2023-01-25T05:17:38;10190560.0;;;4.41;66.09766
53089;BME280;38968;47.696;17.540;2023-01-25T05:22:38;10190430.0;;;4.3;65.65332
53089;BME280;38968;47.696;17.540;2023-01-25T05:27:38;10190990.0;;;4.39;65.99316
53089;BME280;38968;47.696;17.540;2023-01-25T05:32:38;10191220.0;;;4.35;66.07715
53089;BME280;38968;47.696;17.540;2023-01-25T05:37:38;10191850.0;;;4.4;65.66797
53089;BME280;38968;47.696;17.540;2023-01-25T05:42:38;10191900.0;;;4.31;65.39453
53089;BME280;38968;47.696;17.540;2023-01-25T05:47:38;10191520.0;;;4.21;64.64746
53089;BME280;38968;47.696;17.540;2023-01-25T05:52:38;10193790.0;;;4.08;64.97559
53089;BME280;38968;47.696;17.540;2023-01-25T05:57:38;10192990.0;;;4.22;64.78418
53089;BME280;38968;47.696;17.540;2023-01-25T06:02:38;10194090.0;;;4.18;65.00293
53089;BME280;38968;47.696;17.540;2023-01-25T06:07:38;10194470.0;;;4.04;65.0957
53089;BME280;38968;47.696;17.540;2023-01-25T06:12:38;10194950.0;;;4.19;65.27441
53089;BME280;38968;47.696;17.540;2023-01-25T06:17:38;10194410.0;;;4.32;65.11426
53089;BME280;38968;47.696;17.540;2023-01-25T06:22:38;10194850.0;;;4.33;65.07031
53089;BME280;38968;47.696;17.540;2023-01-25T06:27:38;10195170.0;;;4.29;65.00781
53089;BME280;38968;47.696;17.540;2023-01-25T06:32:38;10195660.0;;;4.44;64.92871
53089;BME280;38968;47.696;17.540;2023-01-25T06:37:38;10195490.0;;;4.43;64.38574
53089;BME280;38968;47.696;17.540;2023-01-25T06:42:38;10195590.0;;;4.48;64.64258
53089;BME280;38968;47.696;17.540;2023-01-25T06:47:39;10194490.0;;;4.52;64.58008
53089;BME280;38968;47.696;17.540;2023-01-25T06:52:38;10194170.0;;;4.59;64.70313
53089;BME280;38968;47.696;17.540;2023-01-25T06:57:38;10194400.0;;;4.74;64.5791
53089;BME280;38968;47.696;17.540;2023-01-25T07:02:38;10194420.0;;;4.8;64.38477
53089;BME280;38968;47.696;17.540;2023-01-25T07:07:38;10194310.0;;;4.72;64.32813
53089;BME280;38968;47.696;17.540;2023-01-25T07:12:38;10194410.0;;;4.99;64.60645
53089;BME280;38968;47.696;17.540;2023-01-25T07:17:38;10194940.0;;;5.01;65.02637
53089;BME280;38968;47.696;17.540;2023-01-25T07:22:38;10195480.0;;;5.07;64.22266
53089;BME280;38968;47.696;17.540;2023-01-25T07:27:38;10194530.0;;;5.07;64.44922
53089;BME280;38968;47.696;17.540;2023-01-25T07:32:38;10195280.0;;;5.24;64.7002
53089;BME280;38968;47.696;17.540;2023-01-25T07:37:38;10195600.0;;;5.39;64.25879
53089;BME280;38968;47.696;17.540;2023-01-25T07:42:38;10195520.0;;;5.18;64.35156
53089;BME280;38968;47.696;17.540;2023-01-25T07:47:38;10195360.0;;;5.21;64.43555
53089;BME280;38968;47.696;17.540;2023-01-25T07:52:38;10195850.0;;;5.39;64.22461
53089;BME280;38968;47.696;17.540;2023-01-25T07:57:38;10195090.0;;;5.44;64.11816
53089;BME280;38968;47.696;17.540;2023-01-25T08:02:38;10196010.0;;;5.58;64.18457
53089;BME280;38968;47.696;17.540;2023-01-25T08:07:38;10194850.0;;;5.47;63.52441
53089;BME280;38968;47.696;17.540;2023-01-25T08:12:38;10194580.0;;;5.45;63.5332
53089;BME280;38968;47.696;17.540;2023-01-25T08:17:38;10194400.0;;;5.43;63.81152
53089;BME280;38968;47.696;17.540;2023-01-25T08:22:38;10194390.0;;;5.17;64.49707
53089;BME280;38968;47.696;17.540;2023-01-25T08:27:38;10193820.0;;;5.27;64.5459
53089;BME280;38968;47.696;17.540;2023-01-25T08:32:38;10193850.0;;;5.57;64.50195
53089;BME280;38968;47.696;17.540;2023-01-25T08:37:38;10193630.0;;;5.7;63.58105
53089;BME280;38968;47.696;17.540;2023-01-25T08:42:38;10193040.0;;;5.74;63.82324
53089;BME280;38968;47.696;17.540;2023-01-25T08:47:38;10193350.0;;;5.89;63.42676
53089;BME280;38968;47.696;17.540;2023-01-25T08:52:38;10193390.0;;;6;62.87598
53089;BME280;38968;47.696;17.540;2023-01-25T08:57:38;10192440.0;;;5.99;62.17285
53089;BME280;38968;47.696;17.540;2023-01-25T09:02:38;10191840.0;;;6.03;62.46191
53089;BME280;38968;47.696;17.540;2023-01-25T09:07:38;10192580.0;;;5.9;63.05566
53089;BME280;38968;47.696;17.540;2023-01-25T09:12:38;10192760.0;;;5.66;64.35645
53089;BME280;38968;47.696;17.540;2023-01-25T09:17:38;10191660.0;;;6.26;63.77637
53089;BME280;38968;47.696;17.540;2023-01-25T09:22:38;10191460.0;;;6.42;62.80371
53089;BME280;38968;47.696;17.540;2023-01-25T09:27:38;10191530.0;;;6.38;62.27539
53089;BME280;38968;47.696;17.540;2023-01-25T09:32:38;10190460.0;;;6.29;62.37598
53089;BME280;38968;47.696;17.540;2023-01-25T09:37:38;10190790.0;;;5.97;63.64258
53089;BME280;38968;47.696;17.540;2023-01-25T09:43:01;10190190.0;;;6.28;63.35938
53089;BME280;38968;47.696;17.540;2023-01-25T09:47:46;10190120.0;;;6.03;63.81055
53089;BME280;38968;47.696;17.540;2023-01-25T09:57:38;10190020.0;;;6.01;63.7959
53089;BME280;38968;47.696;17.540;2023-01-25T10:03:00;10189420.0;;;6.01;64.27148
53089;BME280;38968;47.696;17.540;2023-01-25T10:07:56;10189010.0;;;6.37;63.63477
53089;BME280;38968;47.696;17.540;2023-01-25T10:12:38;10188320.0;;;6.36;62.7373
53089;BME280;38968;47.696;17.540;2023-01-25T10:17:39;10187870.0;;;6.32;63.02539
53089;BME280;38968;47.696;17.540;2023-01-25T10:22:41;10186540.0;;;5.93;64.13574
53089;BME280;38968;47.696;17.540;2023-01-25T10:32:39;10185280.0;;;5.81;65.13574
53089;BME280;38968;47.696;17.540;2023-01-25T10:37:38;10184680.0;;;5.84;65.16211
53089;BME280;38968;47.696;17.540;2023-01-25T10:43:05;10184590.0;;;5.08;66.73145
53089;BME280;38968;47.696;17.540;2023-01-25T10:47:39;10182780.0;;;5.59;66.38086
53089;BME280;38968;47.696;17.540;2023-01-25T10:52:38;10180870.0;;;6.07;65.20996
53089;BME280;38968;47.696;17.540;2023-01-25T10:57:46;10180370.0;;;6.43;63.41504
53089;BME280;38968;47.696;17.540;2023-01-25T11:07:38;10177820.0;;;6.9;61.62207
53089;BME280;38968;47.696;17.540;2023-01-25T11:12:38;10177700.0;;;6.79;60.83398
53089;BME280;38968;47.696;17.540;2023-01-25T11:17:38;10177730.0;;;6.88;61.25684
53089;BME280;38968;47.696;17.540;2023-01-25T11:22:44;10177290.0;;;6.55;62.02734
53089;BME280;38968;47.696;17.540;2023-01-25T11:27:38;10176480.0;;;6.76;60.96777
53089;BME280;38968;47.696;17.540;2023-01-25T11:32:39;10175610.0;;;6.42;62.51953
53089;BME280;38968;47.696;17.540;2023-01-25T11:37:57;10174100.0;;;5.48;64.62305
53089;BME280;38968;47.696;17.540;2023-01-25T12:18:03;10167260.0;;;6.62;61.73145
53089;BME280;38968;47.696;17.540;2023-01-25T12:22:50;10165620.0;;;6.31;62.83203
53089;BME280;38968;47.696;17.540;2023-01-25T12:27:52;10164850.0;;;6.66;61.59961
53089;BME280;38968;47.696;17.540;2023-01-25T12:32:46;10164020.0;;;6.82;60.39746
53089;BME280;38968;47.696;17.540;2023-01-25T12:37:39;10164290.0;;;7.2;60.29004
53089;BME280;38968;47.696;17.540;2023-01-25T12:42:46;10163440.0;;;7.27;58.90137
53089;BME280;38968;47.696;17.540;2023-01-25T12:52:46;10163180.0;;;6.92;60.50195
53089;BME280;38968;47.696;17.540;2023-01-25T12:57:55;10164100.0;;;6.45;61.20801
53089;BME280;38968;47.696;17.540;2023-01-25T13:02:53;10162670.0;;;6.95;60.37012
53089;BME280;38968;47.696;17.540;2023-01-25T13:07:54;10162360.0;;;6.77;61.07129
53089;BME280;38968;47.696;17.540;2023-01-25T13:12:54;10161450.0;;;7.29;60.82617
53089;BME280;38968;47.696;17.540;2023-01-25T13:17:38;10160730.0;;;7.19;60.99316
53089;BME280;38968;47.696;17.540;2023-01-25T13:27:38;10161050.0;;;6.08;64.97266
53089;BME280;38968;47.696;17.540;2023-01-25T13:37:38;10160180.0;;;6.72;63.44824
53089;BME280;38968;47.696;17.540;2023-01-25T13:42:38;10160270.0;;;6.38;63.30566
53089;BME280;38968;47.696;17.540;2023-01-25T13:47:38;10159730.0;;;6.63;63.18555
53089;BME280;38968;47.696;17.540;2023-01-25T13:52:38;10160130.0;;;6.52;63.52051
53089;BME280;38968;47.696;17.540;2023-01-25T13:57:38;10160140.0;;;6.57;62.80078
53089;BME280;38968;47.696;17.540;2023-01-25T14:02:39;10160710.0;;;6.09;62.98145
53089;BME280;38968;47.696;17.540;2023-01-25T14:07:38;10160140.0;;;6.24;63.30859
53089;BME280;38968;47.696;17.540;2023-01-25T14:12:39;10160350.0;;;6.38;62.92188
53089;BME280;38968;47.696;17.540;2023-01-25T14:17:38;10159850.0;;;6.43;62.28125
53089;BME280;38968;47.696;17.540;2023-01-25T14:22:38;10160300.0;;;6.5;62.20215
53089;BME280;38968;47.696;17.540;2023-01-25T14:27:49;10160460.0;;;5.83;64.31348
53089;BME280;38968;47.696;17.540;2023-01-25T14:32:39;10159730.0;;;6.3;63.28418
53089;BME280;38968;47.696;17.540;2023-01-25T14:37:41;10158680.0;;;6.26;62.46191
53089;BME280;38968;47.696;17.540;2023-01-25T14:42:38;10158780.0;;;5.72;63.65234
53089;BME280;38968;47.696;17.540;2023-01-25T14:47:38;10158220.0;;;6.19;63.32422
53089;BME280;38968;47.696;17.540;2023-01-25T14:52:38;10158010.0;;;6.35;62.92871
53089;BME280;38968;47.696;17.540;2023-01-25T14:57:39;10157570.0;;;6.34;62.47461
53089;BME280;38968;47.696;17.540;2023-01-25T15:02:48;10157820.0;;;6.28;62.41992
53089;BME280;38968;47.696;17.540;2023-01-25T15:08:11;10156700.0;;;6.32;62.35742
53089;BME280;38968;47.696;17.540;2023-01-25T15:12:38;10157290.0;;;6.24;62.0957
53089;BME280;38968;47.696;17.540;2023-01-25T15:17:43;10156120.0;;;6.41;62.1543
53089;BME280;38968;47.696;17.540;2023-01-25T15:22:38;10156320.0;;;5.88;63.25586
53089;BME280;38968;47.696;17.540;2023-01-25T15:27:38;10156150.0;;;6.2;63.06543
53089;BME280;38968;47.696;17.540;2023-01-25T15:32:39;10156510.0;;;6.25;62.61914
53089;BME280;38968;47.696;17.540;2023-01-25T15:37:38;10155650.0;;;6.26;62.21289
53089;BME280;38968;47.696;17.540;2023-01-25T15:42:38;10155900.0;;;6.23;62.52539
53089;BME280;38968;47.696;17.540;2023-01-25T15:47:38;10155750.0;;;6.33;62.49414
53089;BME280;38968;47.696;17.540;2023-01-25T15:52:38;10155250.0;;;6.39;61.89063
53089;BME280;38968;47.696;17.540;2023-01-25T15:57:38;10155860.0;;;6.41;61.39453
53089;BME280;38968;47.696;17.540;2023-01-25T16:02:38;10156190.0;;;6.35;61.71582
53089;BME280;38968;47.696;17.540;2023-01-25T16:07:39;10157220.0;;;6.29;61.63867
53089;BME280;38968;47.696;17.540;2023-01-25T16:12:38;10157050.0;;;6.34;61.79395
53089;BME280;38968;47.696;17.540;2023-01-25T16:17:38;10155330.0;;;6.39;61.54102
53089;BME280;38968;47.696;17.540;2023-01-25T16:22:39;10155870.0;;;6.46;61.44629
53089;BME280;38968;47.696;17.540;2023-01-25T16:27:39;10155010.0;;;6.16;62.03906
53089;BME280;38968;47.696;17.540;2023-01-25T16:32:38;10155380.0;;;6.23;62.03809
53089;BME280;38968;47.696;17.540;2023-01-25T16:37:38;10154790.0;;;6.3;62.43359
53089;BME280;38968;47.696;17.540;2023-01-25T16:42:38;10153730.0;;;6.21;61.80859
53089;BME280;38968;47.696;17.540;2023-01-25T16:47:38;10154110.0;;;6.35;62.2832
53089;BME280;38968;47.696;17.540;2023-01-25T16:52:38;10153690.0;;;6.37;61.70703
53089;BME280;38968;47.696;17.540;2023-01-25T16:57:39;10154170.0;;;6.24;62.11914
53089;BME280;38968;47.696;17.540;2023-01-25T17:02:39;10153510.0;;;6.38;62.30762
53089;BME280;38968;47.696;17.540;2023-01-25T17:07:38;10153150.0;;;6.33;61.56445
53089;BME280;38968;47.696;17.540;2023-01-25T17:12:39;10152750.0;;;6.46;61.85449
53089;BME280;38968;47.696;17.540;2023-01-25T17:17:38;10152310.0;;;6.41;60.76074
53089;BME280;38968;47.696;17.540;2023-01-25T17:22:39;10151690.0;;;6.35;61.79395
53089;BME280;38968;47.696;17.540;2023-01-25T17:27:39;10151000.0;;;6.38;61.4248
53089;BME280;38968;47.696;17.540;2023-01-25T17:32:38;10151500.0;;;6.31;61.76563
53089;BME280;38968;47.696;17.540;2023-01-25T17:37:39;10150930.0;;;6.42;61.75977
53089;BME280;38968;47.696;17.540;2023-01-25T17:42:40;10150650.0;;;6.36;61.22949
53089;BME280;38968;47.696;17.540;2023-01-25T17:47:39;10150370.0;;;6.27;61.55566
53089;BME280;38968;47.696;17.540;2023-01-25T17:52:39;10151050.0;;;6.22;61.94629
53089;BME280;38968;47.696;17.540;2023-01-25T17:57:38;10149770.0;;;5.98;62.63672
53089;BME280;38968;47.696;17.540;2023-01-25T18:02:41;10149120.0;;;6.14;62.35254
53089;BME280;38968;47.696;17.540;2023-01-25T18:07:38;10148980.0;;;6.27;61.95215
53089;BME280;38968;47.696;17.540;2023-01-25T18:12:39;10148640.0;;;6.29;61.78613
53089;BME280;38968;47.696;17.540;2023-01-25T18:17:39;10147200.0;;;6.07;62.28711
53089;BME280;38968;47.696;17.540;2023-01-25T18:22:40;10146670.0;;;6.04;61.61523
53089;BME280;38968;47.696;17.540;2023-01-25T18:27:39;10146680.0;;;6.06;62.55664
53089;BME280;38968;47.696;17.540;2023-01-25T18:32:39;10145850.0;;;5.89;62.2832
53089;BME280;38968;47.696;17.540;2023-01-25T18:37:39;10144820.0;;;5.9;62.79492
53089;BME280;38968;47.696;17.540;2023-01-25T18:42:39;10143470.0;;;5.71;63.32031
53089;BME280;38968;47.696;17.540;2023-01-25T18:47:39;10143280.0;;;5.67;63.9375
53089;BME280;38968;47.696;17.540;2023-01-25T18:52:39;10143110.0;;;5.64;64.11621
53089;BME280;38968;47.696;17.540;2023-01-25T18:57:40;10142010.0;;;5.74;63.59863
53089;BME280;38968;47.696;17.540;2023-01-25T19:02:39;10141720.0;;;5.97;63.29102
53089;BME280;38968;47.696;17.540;2023-01-25T19:07:39;10141030.0;;;5.96;62.82617
53089;BME280;38968;47.696;17.540;2023-01-25T19:12:41;10140630.0;;;6.08;63.45508
53089;BME280;38968;47.696;17.540;2023-01-25T19:17:39;10140150.0;;;6.25;63.01563
53089;BME280;38968;47.696;17.540;2023-01-25T19:22:39;10139130.0;;;6.31;62.77539
53089;BME280;38968;47.696;17.540;2023-01-25T19:27:40;10138350.0;;;6.31;62.24219
53089;BME280;38968;47.696;17.540;2023-01-25T19:32:39;10138610.0;;;6.34;62.36133
53089;BME280;38968;47.696;17.540;2023-01-25T19:37:40;10138010.0;;;6.37;61.84277
53089;BME280;38968;47.696;17.540;2023-01-25T19:42:39;10136690.0;;;6.25;62.28906
53089;BME280;38968;47.696;17.540;2023-01-25T19:47:38;10136690.0;;;6.28;62.05566
53089;BME280;38968;47.696;17.540;2023-01-25T19:52:41;10135490.0;;;6.31;61.78906
53089;BME280;38968;47.696;17.540;2023-01-25T19:57:40;10135380.0;;;6.23;61.78906
53089;BME280;38968;47.696;17.540;2023-01-25T20:02:39;10134870.0;;;6.26;62.88184
53089;BME280;38968;47.696;17.540;2023-01-25T20:07:39;10134980.0;;;6.37;62.5918
53089;BME280;38968;47.696;17.540;2023-01-25T20:12:39;10134030.0;;;6.39;62.30078
53089;BME280;38968;47.696;17.540;2023-01-25T20:17:38;10134260.0;;;6.23;62.11621
53089;BME280;38968;47.696;17.540;2023-01-25T20:22:39;10132810.0;;;6.34;62.97168
53089;BME280;38968;47.696;17.540;2023-01-25T20:27:39;10132040.0;;;6.35;62.50977
53089;BME280;38968;47.696;17.540;2023-01-25T20:32:40;10131940.0;;;6.33;62.77734
53089;BME280;38968;47.696;17.540;2023-01-25T20:37:39;10131420.0;;;6.33;62.82324
53089;BME280;38968;47.696;17.540;2023-01-25T20:42:39;10131430.0;;;6.36;62.95313
53089;BME280;38968;47.696;17.540;2023-01-25T20:47:39;10130290.0;;;6.3;62.68164
53089;BME280;38968;47.696;17.540;2023-01-25T20:52:39;10129550.0;;;6.09;62.93555
53089;BME280;38968;47.696;17.540;2023-01-25T20:57:39;10128810.0;;;6.27;63.38086
53089;BME280;38968;47.696;17.540;2023-01-25T21:02:39;10128220.0;;;6.31;63.05859
53089;BME280;38968;47.696;17.540;2023-01-25T21:07:39;10127280.0;;;6.39;62.77637
53089;BME280;38968;47.696;17.540;2023-01-25T21:12:39;10127310.0;;;6.12;62.86133
53089;BME280;38968;47.696;17.540;2023-01-25T21:17:39;10127870.0;;;6.31;62.87695
53089;BME280;38968;47.696;17.540;2023-01-25T21:22:40;10127700.0;;;6.34;62.91602
53089;BME280;38968;47.696;17.540;2023-01-25T21:27:39;10127540.0;;;6.38;62.78418
53089;BME280;38968;47.696;17.540;2023-01-25T21:32:39;10126990.0;;;6.27;62.71191
53089;BME280;38968;47.696;17.540;2023-01-25T21:37:39;10127080.0;;;6.26;62.90527
53089;BME280;38968;47.696;17.540;2023-01-25T21:42:39;10126290.0;;;6.2;63.17871
53089;BME280;38968;47.696;17.540;2023-01-25T21:47:40;10126040.0;;;6.23;63.1377
53089;BME280;38968;47.696;17.540;2023-01-25T21:52:38;10125500.0;;;6.14;63.08984
53089;BME280;38968;47.696;17.540;2023-01-25T21:57:38;10126090.0;;;6.07;63.5332
53089;BME280;38968;47.696;17.540;2023-01-25T22:02:38;10124300.0;;;6.19;63.19922
53089;BME280;38968;47.696;17.540;2023-01-25T22:07:38;10124730.0;;;6.19;63.07422
53089;BME280;38968;47.696;17.540;2023-01-25T22:12:38;10123410.0;;;6.11;63.08594
53089;BME280;38968;47.696;17.540;2023-01-25T22:17:38;10123660.0;;;6.06;63.32813
53089;BME280;38968;47.696;17.540;2023-01-25T22:22:38;10123670.0;;;6.12;63.30371
53089;BME280;38968;47.696;17.540;2023-01-25T22:27:48;10122450.0;;;6.05;63.29297
53089;BME280;38968;47.696;17.540;2023-01-25T22:32:38;10122230.0;;;5.86;62.81152
53089;BME280;38968;47.696;17.540;2023-01-25T22:37:38;10122850.0;;;5.93;63.7041
53089;BME280;38968;47.696;17.540;2023-01-25T22:42:38;10121560.0;;;5.99;63.48633
53089;BME280;38968;47.696;17.540;2023-01-25T22:47:38;10120620.0;;;5.99;63.74805
53089;BME280;38968;47.696;17.540;2023-01-25T22:52:38;10120510.0;;;5.53;63.72559
53089;BME280;38968;47.696;17.540;2023-01-25T22:57:38;10119980.0;;;5.49;64.91797
53089;BME280;38968;47.696;17.540;2023-01-25T23:02:38;10118710.0;;;5.26;65.86816
53089;BME280;38968;47.696;17.540;2023-01-25T23:07:38;10117710.0;;;5.76;65.26465
53089;BME280;38968;47.696;17.540;2023-01-25T23:12:38;10118170.0;;;5.89;64.50391
53089;BME280;38968;47.696;17.540;2023-01-25T23:17:38;10116900.0;;;6;64.0332
53089;BME280;38968;47.696;17.540;2023-01-25T23:22:38;10116930.0;;;6.12;63.66602
53089;BME280;38968;47.696;17.540;2023-01-25T23:27:38;10115810.0;;;6.2;63.18945
53089;BME280;38968;47.696;17.540;2023-01-25T23:32:38;10114800.0;;;5.93;62.78613
53089;BME280;38968;47.696;17.540;2023-01-25T23:37:38;10114040.0;;;5.99;63.48633
53089;BME280;38968;47.696;17.540;2023-01-25T23:42:38;10113280.0;;;6.05;63.49707
53089;BME280;38968;47.696;17.540;2023-01-25T23:47:38;10112310.0;;;6.01;63.18457
53089;BME280;38968;47.696;17.540;2023-01-25T23:52:38;10112240.0;;;6.05;63.21387
53089;BME280;38968;47.696;17.540;2023-01-25T23:57:38;10112510.0;;;6.11;63.04004
